Time;durP1;ratioP1;P1;durP2;ratioP2;P2;SDS_P1;SDS_P2;PMS_P1;PMS_P2;Temp;Humidity;BMP_temperature;BMP_pressure;BME280_temperature;BME280_humidity;BME280_pressure;Samples;Min_cycle;Max_cycle;Signal;HPM_P1;HPM_P2
2023/03/07 00:01:35;;;;;;;4.07;2.70;;;;;;;3.61;100.00;99819.41;4965081;28;20118;-74
2023/03/07 00:04:00;;;;;;;4.53;2.63;;;;;;;3.64;100.00;99831.81;4965657;28;20046;-74
2023/03/07 00:06:26;;;;;;;5.07;3.22;;;;;;;3.61;100.00;99824.78;4968270;28;20490;-74
2023/03/07 00:08:53;;;;;;;3.83;2.72;;;;;;;3.57;100.00;99828.63;4967061;28;20430;-74
2023/03/07 00:11:19;;;;;;;4.15;2.65;;;;;;;3.56;100.00;99826.91;4966418;28;20051;-73
2023/03/07 00:13:45;;;;;;;3.45;2.30;;;;;;;3.51;100.00;99834.38;4961931;28;20388;-74
2023/03/07 00:16:17;;;;;;;3.83;2.42;;;;;;;3.50;100.00;99832.66;4956700;28;20049;-73
2023/03/07 00:18:42;;;;;;;2.75;2.00;;;;;;;3.47;100.00;99831.00;4967954;28;20050;-74
2023/03/07 00:21:14;;;;;;;4.78;2.15;;;;;;;3.44;100.00;99831.16;4973548;28;20046;-73
2023/03/07 00:23:41;;;;;;;3.50;2.33;;;;;;;3.41;100.00;99823.31;4989477;28;20478;-73
2023/03/07 00:26:18;;;;;;;2.17;1.88;;;;;;;3.39;100.00;99827.88;4971203;28;20049;-75
2023/03/07 00:28:46;;;;;;;1.52;1.40;;;;;;;3.32;100.00;99813.09;4950458;28;20045;-73
2023/03/07 00:31:12;;;;;;;3.42;1.77;;;;;;;3.26;100.00;99814.34;4948548;28;20483;-74
2023/03/07 00:33:38;;;;;;;3.83;1.70;;;;;;;3.22;100.00;99817.28;4950402;28;20046;-74
2023/03/07 00:36:10;;;;;;;2.85;1.65;;;;;;;3.17;100.00;99813.97;4948853;29;20031;-73
2023/03/07 00:38:36;;;;;;;4.00;1.30;;;;;;;3.11;100.00;99804.47;4950020;29;20035;-73
2023/03/07 00:41:09;;;;;;;2.92;1.40;;;;;;;3.13;100.00;99815.16;4949108;29;20134;-73
2023/03/07 00:43:35;;;;;;;2.97;1.50;;;;;;;3.11;100.00;99803.59;4947829;28;20066;-73
2023/03/07 00:46:01;;;;;;;2.28;1.45;;;;;;;3.06;100.00;99803.88;4954025;28;20058;-74
2023/03/07 00:48:28;;;;;;;2.13;1.40;;;;;;;3.10;100.00;99801.88;4953311;29;20043;-74
2023/03/07 00:50:54;;;;;;;4.68;1.27;;;;;;;3.09;100.00;99800.16;4952570;28;20061;-73
2023/03/07 00:53:22;;;;;;;1.55;1.20;;;;;;;3.11;100.00;99811.66;4952279;28;20042;-73
2023/03/07 00:55:59;;;;;;;3.85;1.20;;;;;;;3.07;100.00;99801.09;4952345;28;20380;-73
2023/03/07 00:58:27;;;;;;;1.27;1.13;;;;;;;3.06;100.00;99803.88;4951991;28;20522;-73
2023/03/07 01:00:53;;;;;;;1.25;1.10;;;;;;;3.03;100.00;99802.25;4952554;28;20037;-73
2023/03/07 01:03:19;;;;;;;1.45;1.30;;;;;;;3.05;100.00;99796.78;4973248;28;20491;-73
2023/03/07 01:05:45;;;;;;;2.70;1.77;;;;;;;3.07;100.00;99800.22;4954623;28;20032;-73
2023/03/07 01:08:11;;;;;;;4.60;1.45;;;;;;;3.04;100.00;99795.03;4953594;29;20379;-74
2023/03/07 01:10:37;;;;;;;2.80;1.52;;;;;;;3.05;100.00;99789.56;4952213;29;20035;-73
2023/03/07 01:13:03;;;;;;;4.13;1.83;;;;;;;3.10;100.00;99792.00;4951838;28;20035;-73
2023/03/07 01:15:30;;;;;;;2.78;1.98;;;;;;;3.13;100.00;99791.81;4951021;28;20035;-74
2023/03/07 01:17:56;;;;;;;4.28;1.80;;;;;;;3.16;100.00;99788.06;4968315;28;20113;-73
2023/03/07 01:20:21;;;;;;;4.25;2.40;;;;;;;3.18;100.00;99789.72;4950847;29;20568;-73
2023/03/07 01:22:47;;;;;;;2.90;1.92;;;;;;;3.17;100.00;99787.09;4952113;29;20082;-73
2023/03/07 01:25:12;;;;;;;3.42;2.30;;;;;;;3.18;100.00;99784.34;4953230;28;20028;-73
2023/03/07 01:27:39;;;;;;;3.08;2.30;;;;;;;3.18;100.00;99780.81;4950473;28;20130;-73
2023/03/07 01:30:06;;;;;;;3.47;2.70;;;;;;;3.20;100.00;99784.25;4951128;28;20130;-73
2023/03/07 01:32:32;;;;;;;4.38;2.65;;;;;;;3.20;100.00;99778.88;4950286;29;20039;-73
2023/03/07 01:34:58;;;;;;;4.15;2.58;;;;;;;3.20;100.00;99773.50;4951826;28;20045;-73
2023/03/07 01:37:23;;;;;;;4.45;2.67;;;;;;;3.22;100.00;99769.78;4951803;29;20082;-73
2023/03/07 01:39:52;;;;;;;3.80;2.60;;;;;;;3.24;100.00;99767.00;4951440;28;20078;-73
2023/03/07 01:42:20;;;;;;;4.93;3.15;;;;;;;3.24;100.00;99762.47;4936273;29;20089;-73
2023/03/07 01:45:07;;;;;;;4.32;2.95;;;;;;;3.27;100.00;99759.63;4948298;28;20054;-73
2023/03/07 01:47:44;;;;;;;5.65;3.50;;;;;;;3.26;100.00;99754.31;4951182;28;20043;-73
2023/03/07 01:50:13;;;;;;;4.55;3.20;;;;;;;3.29;100.00;99754.13;4951208;28;20050;-73
2023/03/07 01:52:44;;;;;;;5.22;3.60;;;;;;;3.30;100.00;99763.94;4935087;29;20050;-73
2023/03/07 01:55:15;;;;;;;7.15;3.95;;;;;;;3.32;100.00;99745.91;4950468;28;20074;-73
2023/03/07 01:57:45;;;;;;;7.32;3.58;;;;;;;3.35;100.00;99751.06;4970421;28;20034;-73
2023/03/07 02:00:22;;;;;;;6.43;4.22;;;;;;;3.36;100.00;99742.06;4950335;29;20487;-74
2023/03/07 02:02:54;;;;;;;7.05;4.13;;;;;;;3.37;100.00;99741.13;4971358;28;20039;-75
2023/03/07 02:05:29;;;;;;;7.90;3.90;;;;;;;3.37;100.00;99735.72;4957180;28;20036;-74
2023/03/07 02:07:59;;;;;;;5.00;4.15;;;;;;;3.40;100.00;99738.22;4951118;29;20041;-75
2023/03/07 02:10:28;;;;;;;6.72;4.78;;;;;;;3.43;100.00;99748.78;4951291;29;20098;-74
2023/03/07 02:12:54;;;;;;;6.97;4.43;;;;;;;3.43;100.00;99742.56;4950083;29;20043;-75
2023/03/07 02:15:19;;;;;;;7.03;4.85;;;;;;;3.44;100.00;99736.22;4949618;28;20031;-75
2023/03/07 02:17:45;;;;;;;7.65;4.53;;;;;;;3.41;100.00;99734.59;4948728;28;20122;-75
2023/03/07 02:20:28;;;;;;;8.43;4.63;;;;;;;3.44;100.00;99730.84;4958510;28;20050;-75
2023/03/07 02:22:54;;;;;;;6.95;4.45;;;;;;;3.42;100.00;99730.94;4934976;29;20039;-74
2023/03/07 02:25:42;;;;;;;6.43;4.25;;;;;;;3.45;100.00;99732.56;4935033;29;20019;-75
2023/03/07 02:28:12;;;;;;;7.90;4.43;;;;;;;3.44;100.00;99726.31;4950720;28;20035;-75
2023/03/07 02:30:52;;;;;;;6.03;4.28;;;;;;;3.46;100.00;99720.88;4966807;28;20841;-75
2023/03/07 02:33:18;;;;;;;7.15;4.35;;;;;;;3.46;100.00;99726.25;4950979;28;20035;-74
2023/03/07 02:35:44;;;;;;;7.18;3.90;;;;;;;3.44;100.00;99714.72;4950601;28;20485;-75
2023/03/07 02:38:10;;;;;;;7.90;4.50;;;;;;;3.41;100.00;99705.03;4950699;29;20129;-75
2023/03/07 02:40:35;;;;;;;6.93;4.22;;;;;;;3.41;100.00;99710.41;4950718;28;20183;-75
2023/03/07 02:43:08;;;;;;;7.03;4.32;;;;;;;3.37;100.00;99702.63;4951099;29;20039;-74
2023/03/07 02:45:34;;;;;;;11.20;4.15;;;;;;;3.41;100.00;99698.78;4950222;28;20038;-74
2023/03/07 02:47:59;;;;;;;6.03;3.72;;;;;;;3.41;100.00;99709.53;4952397;29;20043;-75
2023/03/07 02:50:26;;;;;;;6.47;3.88;;;;;;;3.41;100.00;99710.41;4949431;29;20407;-74
2023/03/07 02:52:52;;;;;;;7.55;4.22;;;;;;;3.40;100.00;99708.66;4934431;29;20047;-74
2023/03/07 02:55:17;;;;;;;6.70;4.13;;;;;;;3.38;100.00;99707.88;4934255;29;20035;-74
2023/03/07 02:57:48;;;;;;;5.78;3.50;;;;;;;3.39;100.00;99704.22;4949447;28;20043;-75
2023/03/07 03:00:14;;;;;;;5.72;3.53;;;;;;;3.38;100.00;99705.19;4950330;28;20070;-74
2023/03/07 03:02:40;;;;;;;6.13;4.05;;;;;;;3.36;100.00;99700.88;4950233;28;20065;-76
2023/03/07 03:05:05;;;;;;;7.18;3.70;;;;;;;3.37;100.00;99705.31;4934632;29;20045;-74
2023/03/07 03:07:31;;;;;;;6.93;3.65;;;;;;;3.36;100.00;99700.88;4949882;28;20032;-74
2023/03/07 03:09:56;;;;;;;8.05;4.53;;;;;;;3.35;100.00;99699.13;4934500;29;20094;-74
2023/03/07 03:12:22;;;;;;;6.75;3.90;;;;;;;3.35;100.00;99699.13;4934213;29;20039;-74
2023/03/07 03:14:48;;;;;;;5.53;3.33;;;;;;;3.36;100.00;99700.88;4943843;29;20038;-74
2023/03/07 03:17:14;;;;;;;8.38;4.00;;;;;;;3.35;100.00;99701.81;4949597;29;20035;-74
2023/03/07 03:19:40;;;;;;;7.35;4.00;;;;;;;3.33;100.00;99694.72;4944059;29;20041;-74
2023/03/07 03:22:05;;;;;;;5.32;3.40;;;;;;;3.32;100.00;99695.69;4951605;29;20110;-75
2023/03/07 03:24:40;;;;;;;6.75;3.10;;;;;;;3.33;100.00;99694.72;4934001;29;20042;-74
2023/03/07 03:27:07;;;;;;;4.13;3.00;;;;;;;3.29;100.00;99687.81;4949504;28;20042;-74
2023/03/07 03:29:33;;;;;;;6.25;3.58;;;;;;;3.32;100.00;99690.31;4949053;28;20395;-74
2023/03/07 03:32:02;;;;;;;4.70;3.28;;;;;;;3.32;100.00;99698.38;4949504;28;20031;-75
2023/03/07 03:34:28;;;;;;;5.93;3.42;;;;;;;3.31;100.00;99693.97;4949135;29;20082;-74
2023/03/07 03:36:53;;;;;;;8.77;4.45;;;;;;;3.30;100.00;99691.34;4951581;29;20113;-75
2023/03/07 03:39:19;;;;;;;5.15;3.40;;;;;;;3.30;100.00;99686.84;4978095;28;20043;-75
2023/03/07 03:41:49;;;;;;;8.02;3.58;;;;;;;3.29;100.00;99687.81;4949025;29;20487;-75
2023/03/07 03:44:16;;;;;;;5.13;3.33;;;;;;;3.31;100.00;99679.63;4944514;29;20035;-74
2023/03/07 03:46:41;;;;;;;6.07;3.47;;;;;;;3.30;100.00;99677.91;4950692;28;20050;-75
2023/03/07 03:49:06;;;;;;;6.13;3.70;;;;;;;3.32;100.00;99673.34;4949205;28;20140;-75
2023/03/07 03:51:32;;;;;;;7.78;3.78;;;;;;;3.27;100.00;99670.06;4949260;29;20483;-75
2023/03/07 03:53:58;;;;;;;10.90;3.90;;;;;;;3.28;100.00;99672.66;4948800;29;20078;-74
2023/03/07 03:56:25;;;;;;;5.18;3.50;;;;;;;3.28;100.00;99669.09;4948174;29;20511;-75
2023/03/07 03:58:54;;;;;;;6.03;3.80;;;;;;;3.27;100.00;99664.69;4950160;28;20465;-74
2023/03/07 04:01:22;;;;;;;6.25;3.50;;;;;;;3.26;100.00;99661.13;4949294;28;20125;-74
2023/03/07 04:03:49;;;;;;;5.10;3.30;;;;;;;3.26;100.00;99653.06;4948866;28;20037;-73
2023/03/07 04:06:27;;;;;;;6.13;3.30;;;;;;;3.26;100.00;99660.25;4951078;28;20137;-74
2023/03/07 04:08:53;;;;;;;3.17;2.60;;;;;;;3.25;100.00;99651.31;4949065;29;20039;-74
2023/03/07 04:11:20;;;;;;;3.60;2.78;;;;;;;3.23;100.00;99652.41;4949146;29;20391;-74
2023/03/07 04:13:46;;;;;;;6.53;2.80;;;;;;;3.23;100.00;99638.97;4933066;29;20034;-73
2023/03/07 04:16:12;;;;;;;4.47;2.97;;;;;;;3.20;100.00;99631.94;4949624;28;20035;-74
2023/03/07 04:18:38;;;;;;;5.10;2.75;;;;;;;3.16;100.00;99633.06;4969494;28;20053;-74
2023/03/07 04:21:05;;;;;;;5.22;3.10;;;;;;;3.16;100.00;99626.84;4949847;28;20487;-73
2023/03/07 04:23:31;;;;;;;6.13;3.53;;;;;;;3.16;100.00;99626.84;4949411;29;20035;-74
2023/03/07 04:26:00;;;;;;;6.43;3.35;;;;;;;3.16;100.00;99624.16;4948205;29;20027;-73
2023/03/07 04:28:40;;;;;;;4.32;3.03;;;;;;;3.15;100.00;99625.97;4948586;28;20035;-73
2023/03/07 04:31:05;;;;;;;5.13;3.35;;;;;;;3.14;100.00;99620.72;4948624;28;20042;-73
2023/03/07 04:33:31;;;;;;;4.90;3.33;;;;;;;3.15;100.00;99617.06;4949272;29;20130;-73
2023/03/07 04:35:56;;;;;;;5.85;3.08;;;;;;;3.15;100.00;99619.75;4948771;28;20137;-74
2023/03/07 04:38:22;;;;;;;5.95;3.53;;;;;;;3.15;100.00;99617.06;4948895;29;20177;-74
2023/03/07 04:40:47;;;;;;;5.38;3.20;;;;;;;3.16;100.00;99616.09;4949069;29;20074;-74
2023/03/07 04:43:12;;;;;;;5.93;3.35;;;;;;;3.11;100.00;99605.63;4948179;28;20125;-75
2023/03/07 04:45:38;;;;;;;5.88;2.85;;;;;;;3.16;100.00;99614.25;4949090;28;20053;-74
2023/03/07 04:48:04;;;;;;;5.68;2.70;;;;;;;3.16;100.00;99613.41;4948953;29;20038;-74
2023/03/07 04:50:30;;;;;;;4.68;2.90;;;;;;;3.16;100.00;99610.72;4949240;28;20494;-75
2023/03/07 04:52:58;;;;;;;6.90;3.15;;;;;;;3.16;100.00;99608.03;4933034;29;20123;-74
2023/03/07 04:55:23;;;;;;;5.68;2.85;;;;;;;3.18;100.00;99612.38;4949140;29;20027;-75
2023/03/07 04:57:50;;;;;;;5.07;2.90;;;;;;;3.17;100.00;99605.28;4948148;28;20992;-74
2023/03/07 05:00:17;;;;;;;5.05;2.70;;;;;;;3.18;100.00;99603.44;4949031;28;20042;-74
2023/03/07 05:02:44;;;;;;;8.13;3.10;;;;;;;3.15;100.00;99596.41;4949455;28;20114;-74
2023/03/07 05:05:10;;;;;;;6.30;2.90;;;;;;;3.15;100.00;99599.09;4948541;28;20039;-74
2023/03/07 05:07:35;;;;;;;6.00;3.15;;;;;;;3.16;100.00;99599.97;4948980;29;20031;-75
2023/03/07 05:10:01;;;;;;;5.32;3.05;;;;;;;3.14;100.00;99604.59;4949195;29;20031;-74
2023/03/07 05:12:27;;;;;;;6.28;3.45;;;;;;;3.13;100.00;99600.19;4949189;29;20054;-74
2023/03/07 05:14:53;;;;;;;5.10;3.17;;;;;;;3.12;100.00;99593.91;4948675;28;20027;-75
2023/03/07 05:17:19;;;;;;;4.95;3.28;;;;;;;3.13;100.00;99589.44;4948530;28;20045;-74
2023/03/07 05:19:45;;;;;;;9.48;3.67;;;;;;;3.16;100.00;99591.91;4948571;28;20027;-74
2023/03/07 05:22:11;;;;;;;10.43;4.03;;;;;;;3.16;100.00;99600.84;4949063;29;20431;-74
2023/03/07 05:24:36;;;;;;;9.55;3.83;;;;;;;3.15;100.00;99593.72;4949766;28;20070;-74
2023/03/07 05:27:02;;;;;;;8.07;3.78;;;;;;;3.15;100.00;99588.34;4917239;29;20027;-73
2023/03/07 05:29:27;;;;;;;6.47;3.40;;;;;;;3.14;100.00;99583.94;4939190;28;20035;-74
2023/03/07 05:31:54;;;;;;;8.60;3.78;;;;;;;3.14;100.00;99578.59;4943837;29;20487;-74
2023/03/07 05:34:20;;;;;;;5.00;3.25;;;;;;;3.11;100.00;99576.06;4939797;28;20085;-75
2023/03/07 05:36:46;;;;;;;5.07;3.10;;;;;;;3.12;100.00;99571.56;4955606;28;20031;-75
2023/03/07 05:39:14;;;;;;;4.88;3.17;;;;;;;3.05;100.00;99569.25;4972757;28;20039;-75
2023/03/07 05:41:39;;;;;;;7.78;3.10;;;;;;;3.10;100.00;99581.56;4960665;28;20085;-75
2023/03/07 05:44:05;;;;;;;5.10;3.17;;;;;;;3.08;100.00;99578.97;4939186;29;20122;-74
2023/03/07 05:46:31;;;;;;;4.47;3.15;;;;;;;3.07;100.00;99583.44;4952071;28;20031;-74
2023/03/07 05:48:56;;;;;;;5.93;3.00;;;;;;;3.04;100.00;99575.59;4952149;28;20487;-75
2023/03/07 05:51:21;;;;;;;5.88;3.08;;;;;;;3.04;100.00;99580.13;4936285;29;20073;-75
2023/03/07 05:53:47;;;;;;;5.85;3.08;;;;;;;3.03;100.00;99579.25;4938294;28;20368;-75
2023/03/07 05:56:13;;;;;;;7.07;3.13;;;;;;;3.02;100.00;99565.91;4951440;28;20392;-75
2023/03/07 05:58:38;;;;;;;5.90;3.28;;;;;;;3.03;100.00;99573.00;4951335;28;20043;-74
2023/03/07 06:01:04;;;;;;;5.43;3.10;;;;;;;2.98;100.00;99565.22;4951796;28;20491;-75
2023/03/07 06:03:30;;;;;;;4.45;2.88;;;;;;;3.00;100.00;99571.38;4952170;28;20150;-75
2023/03/07 06:05:56;;;;;;;6.47;3.50;;;;;;;3.00;100.00;99571.38;4951816;28;20113;-74
2023/03/07 06:08:21;;;;;;;8.35;3.80;;;;;;;3.00;100.00;99570.50;4953078;29;20624;-74
2023/03/07 06:10:52;;;;;;;4.78;2.97;;;;;;;3.02;100.00;99576.63;4945944;29;20038;-75
2023/03/07 06:13:23;;;;;;;8.13;3.42;;;;;;;3.02;100.00;99568.59;4951446;28;20507;-75
2023/03/07 06:15:49;;;;;;;4.82;3.20;;;;;;;3.00;100.00;99578.56;4935532;28;20035;-75
2023/03/07 06:18:16;;;;;;;4.22;2.88;;;;;;;2.99;100.00;99575.03;4937298;29;20051;-75
2023/03/07 06:20:41;;;;;;;4.63;2.78;;;;;;;2.96;100.00;99577.88;4950808;29;20046;-74
2023/03/07 06:23:07;;;;;;;4.45;3.03;;;;;;;2.92;100.00;99570.13;4935914;29;20042;-74
2023/03/07 06:25:33;;;;;;;5.47;3.05;;;;;;;2.90;100.00;99580.09;4951314;28;20399;-75
2023/03/07 06:28:00;;;;;;;9.30;3.67;;;;;;;2.83;100.00;99578.72;4951704;29;20027;-74
2023/03/07 06:30:29;;;;;;;6.15;3.88;;;;;;;2.79;100.00;99592.34;4951269;28;20051;-75
2023/03/07 06:32:58;;;;;;;7.68;3.45;;;;;;;2.75;100.00;99590.81;4952087;29;20075;-75
2023/03/07 06:35:24;;;;;;;5.40;3.45;;;;;;;2.71;100.00;99596.47;4951172;28;20039;-75
2023/03/07 06:37:50;;;;;;;7.43;3.70;;;;;;;2.66;100.00;99595.84;4952430;29;20482;-75
2023/03/07 06:40:16;;;;;;;5.90;3.72;;;;;;;2.58;100.00;99588.28;4951431;29;20154;-74
2023/03/07 06:42:42;;;;;;;6.88;3.78;;;;;;;2.53;100.00;99582.31;4950858;28;20126;-74
2023/03/07 06:45:09;;;;;;;5.80;3.25;;;;;;;2.51;100.00;99586.91;4953375;28;20029;-75
2023/03/07 06:47:34;;;;;;;4.55;3.45;;;;;;;2.48;100.00;99582.59;4952880;28;20397;-75
2023/03/07 06:50:04;;;;;;;7.53;3.63;;;;;;;2.50;100.00;99580.66;4961737;28;20130;-75
2023/03/07 06:52:31;;;;;;;6.90;4.03;;;;;;;2.47;100.00;99572.81;4929711;28;20126;-75
2023/03/07 06:54:59;;;;;;;7.40;3.40;;;;;;;2.48;100.00;99579.91;4948319;28;20070;-75
2023/03/07 06:57:25;;;;;;;7.68;3.90;;;;;;;2.47;100.00;99579.97;4948347;28;20027;-74
2023/03/07 06:59:50;;;;;;;6.40;3.60;;;;;;;2.40;100.00;99584.88;4972579;28;20152;-75
2023/03/07 07:02:16;;;;;;;5.53;4.07;;;;;;;2.43;100.00;99594.56;4960020;28;20493;-75
2023/03/07 07:04:41;;;;;;;9.13;3.80;;;;;;;2.42;100.00;99600.88;4966338;28;20031;-75
2023/03/07 07:07:07;;;;;;;8.63;3.30;;;;;;;2.40;100.00;99602.78;4965652;28;20500;-75
2023/03/07 07:09:33;;;;;;;7.40;3.78;;;;;;;2.39;100.00;99607.28;4953272;28;20031;-76
2023/03/07 07:11:59;;;;;;;5.85;3.53;;;;;;;2.33;100.00;99602.28;4950270;29;20475;-76
2023/03/07 07:14:24;;;;;;;5.90;3.75;;;;;;;2.29;100.00;99596.25;4951627;28;20038;-75
2023/03/07 07:16:50;;;;;;;6.72;3.22;;;;;;;2.28;100.00;99599.88;4950018;28;20036;-76
2023/03/07 07:19:16;;;;;;;5.22;3.58;;;;;;;2.24;100.00;99589.41;4950503;28;20513;-75
2023/03/07 07:21:41;;;;;;;5.18;3.20;;;;;;;2.19;100.00;99600.41;4950550;29;20043;-75
2023/03/07 07:24:10;;;;;;;4.50;3.15;;;;;;;2.20;100.00;99594.09;4918501;29;20494;-75
2023/03/07 07:26:36;;;;;;;6.85;3.60;;;;;;;2.20;100.00;99585.19;4966048;28;20034;-75
2023/03/07 07:29:02;;;;;;;5.72;3.97;;;;;;;2.15;100.00;99601.53;4947474;29;20038;-75
2023/03/07 07:31:28;;;;;;;7.53;3.80;;;;;;;2.10;100.00;99603.63;4958241;28;20114;-75
2023/03/07 07:33:53;;;;;;;4.78;2.97;;;;;;;2.09;100.00;99606.38;4962812;28;20765;-75
2023/03/07 07:36:19;;;;;;;5.97;3.60;;;;;;;2.06;100.00;99612.81;4958889;28;20459;-75
2023/03/07 07:38:44;;;;;;;5.72;3.70;;;;;;;2.06;100.00;99622.69;4969991;28;20066;-75
2023/03/07 07:41:11;;;;;;;7.85;4.18;;;;;;;2.01;100.00;99625.63;4954364;28;20118;-75
2023/03/07 07:43:36;;;;;;;5.18;3.50;;;;;;;1.98;100.00;99640.06;4949489;28;20121;-75
2023/03/07 07:46:10;;;;;;;7.72;4.22;;;;;;;1.91;100.00;99646.72;4951870;28;20109;-75
2023/03/07 07:48:37;;;;;;;6.75;4.00;;;;;;;1.89;100.00;99645.94;4968478;28;20042;-75
2023/03/07 07:51:03;;;;;;;7.07;3.75;;;;;;;1.90;100.00;99650.34;4964863;28;20034;-75
2023/03/07 07:53:30;;;;;;;7.75;3.63;;;;;;;1.89;100.00;99664.72;4952385;28;20034;-75
2023/03/07 07:55:56;;;;;;;6.10;4.00;;;;;;;1.89;100.00;99656.66;4936182;28;20487;-75
2023/03/07 07:58:23;;;;;;;8.30;4.00;;;;;;;1.88;100.00;99649.56;4963442;28;20046;-75
2023/03/07 08:00:48;;;;;;;6.63;4.03;;;;;;;1.93;100.00;99657.38;4959563;28;20038;-74
2023/03/07 08:03:13;;;;;;;8.55;4.40;;;;;;;1.91;100.00;99645.84;4949173;28;20027;-74
2023/03/07 08:05:44;;;;;;;7.32;4.18;;;;;;;1.93;100.00;99652.88;4966643;28;20166;-74
2023/03/07 08:08:09;;;;;;;8.40;4.63;;;;;;;1.94;100.00;99649.22;4939854;28;20047;-74
2023/03/07 08:10:35;;;;;;;7.28;4.30;;;;;;;1.93;100.00;99657.38;4968601;28;20029;-74
2023/03/07 08:13:00;;;;;;;9.07;5.57;;;;;;;1.93;100.00;99654.69;4951058;28;20133;-74
2023/03/07 08:15:25;;;;;;;10.18;5.65;;;;;;;1.86;100.00;99664.00;4950045;28;20407;-74
2023/03/07 08:17:51;;;;;;;9.75;5.53;;;;;;;1.82;100.00;99663.34;4954384;28;20628;-74
2023/03/07 08:20:18;;;;;;;10.73;6.15;;;;;;;1.79;100.00;99669.72;4952167;28;20042;-74
2023/03/07 08:22:47;;;;;;;11.38;6.72;;;;;;;1.76;100.00;99660.97;4952144;28;20043;-74
2023/03/07 08:25:20;;;;;;;12.00;6.70;;;;;;;1.74;100.00;99673.59;4970080;28;20497;-75
2023/03/07 08:27:46;;;;;;;12.48;7.18;;;;;;;1.76;100.00;99677.91;4963539;28;20035;-74
2023/03/07 08:30:12;;;;;;;12.15;7.15;;;;;;;1.72;100.00;99689.75;4952015;28;20406;-75
2023/03/07 08:32:37;;;;;;;14.10;7.90;;;;;;;1.67;100.00;99680.25;4952070;28;20041;-75
2023/03/07 08:35:03;;;;;;;15.10;8.98;;;;;;;1.63;100.00;99690.28;4960884;28;20478;-74
2023/03/07 08:37:29;;;;;;;15.43;8.40;;;;;;;1.66;100.00;99671.34;4966809;28;20037;-74
2023/03/07 08:39:54;;;;;;;14.25;8.90;;;;;;;1.68;100.00;99688.22;4969310;28;20114;-75
2023/03/07 08:42:19;;;;;;;14.70;8.48;;;;;;;1.69;100.00;99673.00;4962416;28;20372;-74
2023/03/07 08:44:45;;;;;;;13.63;8.30;;;;;;;1.65;100.00;99680.34;4967580;28;20038;-74
2023/03/07 08:47:12;;;;;;;13.23;7.78;;;;;;;1.65;100.00;99674.97;4968843;28;20039;-74
2023/03/07 08:49:38;;;;;;;16.50;9.05;;;;;;;1.71;100.00;99677.31;4963899;28;20035;-74
2023/03/07 08:52:04;;;;;;;12.25;7.95;;;;;;;1.78;100.00;99678.72;4936416;28;20026;-74
2023/03/07 08:54:31;;;;;;;16.25;9.38;;;;;;;1.85;100.00;99675.69;4949881;28;20410;-74
2023/03/07 08:56:57;;;;;;;16.75;9.98;;;;;;;1.96;100.00;99674.16;4960756;28;20500;-74
2023/03/07 08:59:22;;;;;;;16.38;9.23;;;;;;;2.02;100.00;99670.25;4944590;29;20056;-74
2023/03/07 09:01:48;;;;;;;14.15;9.07;;;;;;;2.10;100.00;99676.06;4953141;28;20038;-74
2023/03/07 09:04:13;;;;;;;15.80;9.13;;;;;;;2.20;100.00;99671.91;4931253;29;20093;-74
2023/03/07 09:06:38;;;;;;;15.88;9.38;;;;;;;2.28;100.00;99671.44;4941152;29;20115;-74
2023/03/07 09:09:04;;;;;;;17.08;9.50;;;;;;;2.35;100.00;99675.53;4948864;29;20027;-73
2023/03/07 09:11:30;;;;;;;15.80;9.35;;;;;;;2.32;100.00;99675.69;4949426;29;20504;-74
2023/03/07 09:13:55;;;;;;;14.93;8.88;;;;;;;2.34;100.00;99672.94;4933865;29;20020;-74
2023/03/07 09:16:21;;;;;;;12.82;8.48;;;;;;;2.34;100.00;99673.78;4935819;29;20290;-74
2023/03/07 09:18:47;;;;;;;16.08;8.88;;;;;;;2.38;100.00;99674.47;4952390;29;20035;-74
2023/03/07 09:21:12;;;;;;;14.20;8.40;;;;;;;2.45;100.00;99687.44;4952145;29;20027;-74
2023/03/07 09:23:37;;;;;;;14.77;8.85;;;;;;;2.49;100.00;99696.19;4952105;29;20117;-75
2023/03/07 09:26:04;;;;;;;14.25;8.70;;;;;;;2.48;100.00;99687.28;4953005;28;20033;-75
2023/03/07 09:28:30;;;;;;;15.65;9.25;;;;;;;2.55;100.00;99691.31;4934688;29;20041;-75
2023/03/07 09:30:56;;;;;;;14.80;9.15;;;;;;;2.59;100.00;99691.16;4954206;28;20020;-75
2023/03/07 09:33:21;;;;;;;14.40;8.98;;;;;;;2.61;100.00;99700.88;4960908;28;20042;-74
2023/03/07 09:35:47;;;;;;;14.98;8.30;;;;;;;2.63;100.00;99698.94;4939333;28;20510;-75
2023/03/07 09:38:13;;;;;;;13.43;8.38;;;;;;;2.67;100.00;99708.56;4950255;29;20477;-74
2023/03/07 09:40:38;;;;;;;12.73;8.18;;;;;;;2.66;100.00;99697.88;4954778;28;20131;-74
2023/03/07 09:43:21;;;;;;;11.23;7.72;;;;;;;2.75;100.00;99690.19;4951849;29;20039;-74
2023/03/07 09:46:44;;;;;;;11.57;7.50;;;;;;;2.85;100.00;99692.31;4942985;29;20118;-75
2023/03/07 09:49:24;;;;;;;12.13;7.35;;;;;;;2.96;100.00;99690.72;4948370;29;20550;-74
2023/03/07 09:51:52;;;;;;;11.55;7.38;;;;;;;3.01;100.00;99699.38;4938905;29;20039;-74
2023/03/07 09:54:26;;;;;;;11.60;7.65;;;;;;;3.10;100.00;99695.25;4934133;29;20495;-74
2023/03/07 09:56:54;;;;;;;11.63;7.25;;;;;;;3.13;100.00;99689.72;4942734;28;20126;-74
2023/03/07 09:59:33;;;;;;;12.80;7.57;;;;;;;3.19;100.00;99689.34;4947396;29;20054;-74
2023/03/07 10:02:20;;;;;;;8.75;5.85;;;;;;;3.25;99.83;99691.63;4935773;29;20032;-74
2023/03/07 10:05:28;;;;;;;9.95;6.22;;;;;;;3.30;99.99;99694.91;4933924;29;20110;-74
2023/03/07 10:07:54;;;;;;;9.82;5.72;;;;;;;3.30;99.42;99696.72;4957331;28;20035;-75
2023/03/07 10:10:22;;;;;;;9.40;5.75;;;;;;;3.29;99.22;99689.63;4933643;29;20039;-74
2023/03/07 10:12:59;;;;;;;9.60;6.05;;;;;;;3.27;99.64;99692.44;4936205;29;20067;-74
2023/03/07 10:15:41;;;;;;;7.03;4.45;;;;;;;3.31;98.99;99693.06;4932187;29;20481;-74
2023/03/07 10:18:41;;;;;;;6.35;4.20;;;;;;;3.32;98.93;99686.78;4947351;29;22004;-74
2023/03/07 10:21:16;;;;;;;6.47;4.45;;;;;;;3.29;98.78;99692.31;4934383;29;20119;-74
2023/03/07 10:24:07;;;;;;;6.20;4.13;;;;;;;3.29;98.99;99690.50;4933513;29;20122;-74
2023/03/07 10:26:48;;;;;;;7.80;3.05;;;;;;;3.26;98.48;99689.81;4939005;29;20483;-74
2023/03/07 10:29:17;;;;;;;4.57;3.50;;;;;;;3.28;98.38;99691.47;4934197;28;20043;-74
2023/03/07 10:31:49;;;;;;;4.82;3.58;;;;;;;3.32;99.03;99695.69;4934071;29;20472;-74
2023/03/07 10:34:27;;;;;;;6.05;3.88;;;;;;;3.31;98.61;99688.59;4933419;29;20067;-73
2023/03/07 10:36:59;;;;;;;5.18;3.35;;;;;;;3.36;99.02;99684.72;4955442;28;20097;-74
2023/03/07 10:39:33;;;;;;;5.05;3.25;;;;;;;3.45;99.21;99690.44;4933143;28;20040;-74
2023/03/07 10:41:58;;;;;;;5.68;3.53;;;;;;;3.52;98.56;99677.47;4940200;29;20059;-74
2023/03/07 10:44:30;;;;;;;5.10;3.38;;;;;;;3.59;98.32;99686.91;4949872;29;20070;-74
2023/03/07 10:46:57;;;;;;;4.95;3.03;;;;;;;3.64;98.46;99679.41;4946424;28;20057;-74
2023/03/07 10:49:27;;;;;;;6.45;3.55;;;;;;;3.68;98.86;99688.97;4948731;28;20027;-74
2023/03/07 10:52:11;;;;;;;4.70;3.03;;;;;;;3.68;97.92;99688.97;4933907;29;20028;-74
2023/03/07 10:54:37;;;;;;;6.40;3.95;;;;;;;3.66;98.52;99690.91;4946794;28;20435;-74
2023/03/07 10:57:15;;;;;;;5.53;3.67;;;;;;;3.61;97.83;99687.66;4948584;28;20399;-74
2023/03/07 10:59:51;;;;;;;7.82;4.00;;;;;;;3.61;98.17;99687.66;4947499;28;20070;-74
2023/03/07 11:02:36;;;;;;;7.28;4.60;;;;;;;3.75;99.10;99694.84;4950069;28;20122;-74
2023/03/07 11:05:27;;;;;;;7.07;4.47;;;;;;;3.86;98.86;99691.47;4952327;28;20039;-74
2023/03/07 11:07:53;;;;;;;13.75;5.68;;;;;;;3.91;97.59;99700.13;4967720;28;20054;-74
2023/03/07 11:10:38;;;;;;;7.93;4.85;;;;;;;3.88;97.65;99695.81;4966502;28;20033;-74
2023/03/07 11:13:13;;;;;;;8.00;4.85;;;;;;;3.86;98.14;99691.47;4969377;28;20038;-74
2023/03/07 11:15:39;;;;;;;7.32;5.03;;;;;;;3.84;96.83;99687.06;4967238;28;20070;-74
2023/03/07 11:18:24;;;;;;;6.43;4.45;;;;;;;3.81;97.37;99695.31;4961281;28;20490;-73
2023/03/07 11:20:50;;;;;;;8.82;4.72;;;;;;;3.78;nan;99689.28;4962882;28;20402;-74
2023/03/07 11:23:15;;;;;;;7.45;4.43;;;;;;;3.86;98.03;99694.16;4952248;28;20031;-74
2023/03/07 11:25:41;;;;;;;5.53;3.97;;;;;;;3.93;98.56;99698.22;4949633;29;20046;-74
2023/03/07 11:28:27;;;;;;;5.65;3.33;;;;;;;4.03;98.55;99697.53;4957380;28;20035;-74
2023/03/07 11:30:55;;;;;;;7.47;3.65;;;;;;;4.09;98.02;99694.41;4951772;28;20032;-74
2023/03/07 11:33:44;;;;;;;5.13;3.35;;;;;;;4.16;98.00;99686.84;4967984;28;20037;-74
2023/03/07 11:36:24;;;;;;;5.57;3.78;;;;;;;4.20;97.79;99691.06;4936773;29;20031;-74
2023/03/07 11:39:15;;;;;;;5.18;3.67;;;;;;;4.22;97.23;99690.94;4969514;28;20398;-74
2023/03/07 11:42:12;;;;;;;6.28;4.10;;;;;;;4.29;97.46;99695.84;4953445;28;20135;-74